sensor_id;sensor_type;location;lat;lon;timestamp;P1;durP1;ratioP1;P2;durP2;ratioP2
25980;SDS011;13772;52.996;9.124;2024-03-23T09:18:18;8.32;;;2.30;;
25980;SDS011;13772;52.996;9.124;2024-03-23T09:20:43;10.80;;;2.60;;
25980;SDS011;13772;52.996;9.124;2024-03-23T09:23:09;14.00;;;2.53;;
25980;SDS011;13772;52.996;9.124;2024-03-23T09:25:37;11.00;;;2.20;;
25980;SDS011;13772;52.996;9.124;2024-03-23T09:28:03;12.43;;;3.22;;
25980;SDS011;13772;52.996;9.124;2024-03-23T09:30:28;12.38;;;2.85;;
25980;SDS011;13772;52.996;9.124;2024-03-23T09:32:54;9.57;;;2.42;;
25980;SDS011;13772;52.996;9.124;2024-03-23T09:35:19;12.70;;;2.65;;
25980;SDS011;13772;52.996;9.124;2024-03-23T09:37:44;12.63;;;2.33;;
25980;SDS011;13772;52.996;9.124;2024-03-23T09:40:10;12.38;;;2.75;;
25980;SDS011;13772;52.996;9.124;2024-03-23T09:42:36;11.27;;;2.53;;
25980;SDS011;13772;52.996;9.124;2024-03-23T09:45:01;9.82;;;2.20;;
25980;SDS011;13772;52.996;9.124;2024-03-23T09:47:27;8.68;;;1.80;;
25980;SDS011;13772;52.996;9.124;2024-03-23T09:49:52;8.52;;;2.10;;
25980;SDS011;13772;52.996;9.124;2024-03-23T09:52:18;11.88;;;2.08;;
25980;SDS011;13772;52.996;9.124;2024-03-23T09:54:43;8.75;;;2.38;;
25980;SDS011;13772;52.996;9.124;2024-03-23T09:57:09;5.55;;;1.77;;
25980;SDS011;13772;52.996;9.124;2024-03-23T09:59:34;7.53;;;1.90;;
25980;SDS011;13772;52.996;9.124;2024-03-23T10:02:00;6.60;;;1.33;;
25980;SDS011;13772;52.996;9.124;2024-03-23T10:04:38;7.85;;;1.67;;
25980;SDS011;13772;52.996;9.124;2024-03-23T10:07:12;6.68;;;1.50;;
25980;SDS011;13772;52.996;9.124;2024-03-23T10:09:38;5.88;;;1.35;;
25980;SDS011;13772;52.996;9.124;2024-03-23T10:12:13;8.48;;;1.90;;
25980;SDS011;13772;52.996;9.124;2024-03-23T10:14:39;4.90;;;1.60;;
25980;SDS011;13772;52.996;9.124;2024-03-23T10:17:11;9.48;;;1.67;;
25980;SDS011;13772;52.996;9.124;2024-03-23T10:19:38;5.88;;;1.80;;
25980;SDS011;13772;52.996;9.124;2024-03-23T10:22:04;5.90;;;1.80;;
25980;SDS011;13772;52.996;9.124;2024-03-23T10:24:29;8.85;;;1.73;;
25980;SDS011;13772;52.996;9.124;2024-03-23T10:26:57;4.28;;;1.60;;
25980;SDS011;13772;52.996;9.124;2024-03-23T10:29:22;4.65;;;1.50;;
25980;SDS011;13772;52.996;9.124;2024-03-23T10:31:48;4.80;;;1.60;;
25980;SDS011;13772;52.996;9.124;2024-03-23T10:34:14;4.10;;;1.10;;
25980;SDS011;13772;52.996;9.124;2024-03-23T10:36:40;6.57;;;1.48;;
25980;SDS011;13772;52.996;9.124;2024-03-23T10:39:07;5.53;;;1.10;;
25980;SDS011;13772;52.996;9.124;2024-03-23T10:41:32;6.45;;;1.50;;
25980;SDS011;13772;52.996;9.124;2024-03-23T10:43:58;6.82;;;1.77;;
25980;SDS011;13772;52.996;9.124;2024-03-23T10:46:24;7.47;;;1.80;;
25980;SDS011;13772;52.996;9.124;2024-03-23T10:48:49;6.32;;;1.73;;
25980;SDS011;13772;52.996;9.124;2024-03-23T10:51:14;6.43;;;1.60;;
25980;SDS011;13772;52.996;9.124;2024-03-23T10:53:40;10.23;;;1.70;;
25980;SDS011;13772;52.996;9.124;2024-03-23T10:56:05;6.68;;;2.10;;
25980;SDS011;13772;52.996;9.124;2024-03-23T11:01:01;9.50;;;2.22;;
25980;SDS011;13772;52.996;9.124;2024-03-23T11:03:31;6.72;;;1.80;;
25980;SDS011;13772;52.996;9.124;2024-03-23T11:05:56;7.47;;;2.10;;
25980;SDS011;13772;52.996;9.124;2024-03-23T11:08:34;8.15;;;1.80;;
25980;SDS011;13772;52.996;9.124;2024-03-23T11:11:21;8.90;;;2.00;;
25980;SDS011;13772;52.996;9.124;2024-03-23T11:13:50;9.50;;;1.95;;
25980;SDS011;13772;52.996;9.124;2024-03-23T11:16:22;9.23;;;2.30;;
25980;SDS011;13772;52.996;9.124;2024-03-23T11:21:53;9.32;;;2.40;;
25980;SDS011;13772;52.996;9.124;2024-03-23T11:24:19;6.47;;;2.05;;
25980;SDS011;13772;52.996;9.124;2024-03-23T11:26:45;7.75;;;2.20;;
25980;SDS011;13772;52.996;9.124;2024-03-23T11:29:11;9.63;;;2.10;;
25980;SDS011;13772;52.996;9.124;2024-03-23T11:31:52;5.72;;;1.60;;
25980;SDS011;13772;52.996;9.124;2024-03-23T11:34:18;5.28;;;1.50;;
25980;SDS011;13772;52.996;9.124;2024-03-23T11:36:44;8.77;;;1.85;;
25980;SDS011;13772;52.996;9.124;2024-03-23T11:39:16;6.10;;;1.58;;
25980;SDS011;13772;52.996;9.124;2024-03-23T11:41:51;4.60;;;1.25;;
25980;SDS011;13772;52.996;9.124;2024-03-23T11:44:17;8.02;;;1.73;;
25980;SDS011;13772;52.996;9.124;2024-03-23T11:46:42;6.25;;;1.27;;
25980;SDS011;13772;52.996;9.124;2024-03-23T11:49:19;6.45;;;1.02;;
25980;SDS011;13772;52.996;9.124;2024-03-23T11:51:44;6.03;;;1.30;;
25980;SDS011;13772;52.996;9.124;2024-03-23T11:54:09;5.22;;;1.33;;
25980;SDS011;13772;52.996;9.124;2024-03-23T11:56:35;5.75;;;1.50;;
25980;SDS011;13772;52.996;9.124;2024-03-23T11:59:00;3.65;;;0.95;;
25980;SDS011;13772;52.996;9.124;2024-03-23T12:01:25;6.68;;;1.25;;
25980;SDS011;13772;52.996;9.124;2024-03-23T12:03:50;5.68;;;1.23;;
25980;SDS011;13772;52.996;9.124;2024-03-23T12:06:19;5.93;;;1.30;;
25980;SDS011;13772;52.996;9.124;2024-03-23T12:08:44;4.75;;;0.98;;
25980;SDS011;13772;52.996;9.124;2024-03-23T12:11:10;3.60;;;1.30;;
25980;SDS011;13772;52.996;9.124;2024-03-23T12:13:36;4.03;;;1.25;;
25980;SDS011;13772;52.996;9.124;2024-03-23T12:16:09;4.78;;;1.40;;
25980;SDS011;13772;52.996;9.124;2024-03-23T12:18:34;4.40;;;1.17;;
25980;SDS011;13772;52.996;9.124;2024-03-23T12:20:59;5.38;;;1.55;;
25980;SDS011;13772;52.996;9.124;2024-03-23T12:23:25;4.90;;;1.30;;
25980;SDS011;13772;52.996;9.124;2024-03-23T12:25:50;8.25;;;1.40;;
25980;SDS011;13772;52.996;9.124;2024-03-23T12:28:15;5.30;;;1.52;;
25980;SDS011;13772;52.996;9.124;2024-03-23T12:30:40;4.80;;;1.00;;
25980;SDS011;13772;52.996;9.124;2024-03-23T12:33:06;5.45;;;1.40;;
25980;SDS011;13772;52.996;9.124;2024-03-23T12:35:31;4.65;;;1.20;;
25980;SDS011;13772;52.996;9.124;2024-03-23T12:37:56;6.95;;;1.27;;
25980;SDS011;13772;52.996;9.124;2024-03-23T12:40:22;4.28;;;1.30;;
25980;SDS011;13772;52.996;9.124;2024-03-23T12:42:47;5.22;;;1.13;;
25980;SDS011;13772;52.996;9.124;2024-03-23T12:45:12;3.90;;;1.02;;
25980;SDS011;13772;52.996;9.124;2024-03-23T12:47:37;2.03;;;0.82;;
25980;SDS011;13772;52.996;9.124;2024-03-23T12:50:03;3.13;;;0.73;;
25980;SDS011;13772;52.996;9.124;2024-03-23T12:52:28;4.72;;;1.05;;
25980;SDS011;13772;52.996;9.124;2024-03-23T12:54:57;1.75;;;0.60;;
25980;SDS011;13772;52.996;9.124;2024-03-23T12:57:23;2.40;;;0.80;;
25980;SDS011;13772;52.996;9.124;2024-03-23T12:59:49;3.60;;;0.68;;
25980;SDS011;13772;52.996;9.124;2024-03-23T13:02:16;2.90;;;0.73;;
25980;SDS011;13772;52.996;9.124;2024-03-23T13:04:41;4.72;;;1.27;;
25980;SDS011;13772;52.996;9.124;2024-03-23T13:07:07;4.43;;;1.10;;
25980;SDS011;13772;52.996;9.124;2024-03-23T13:09:32;4.82;;;0.98;;
25980;SDS011;13772;52.996;9.124;2024-03-23T13:11:57;3.00;;;1.00;;
25980;SDS011;13772;52.996;9.124;2024-03-23T13:14:22;4.90;;;1.33;;
25980;SDS011;13772;52.996;9.124;2024-03-23T13:16:48;7.40;;;1.30;;
25980;SDS011;13772;52.996;9.124;2024-03-23T13:19:13;3.78;;;1.02;;
25980;SDS011;13772;52.996;9.124;2024-03-23T13:21:38;4.10;;;1.17;;
25980;SDS011;13772;52.996;9.124;2024-03-23T13:24:04;6.40;;;1.23;;
25980;SDS011;13772;52.996;9.124;2024-03-23T13:26:29;7.03;;;1.25;;
25980;SDS011;13772;52.996;9.124;2024-03-23T13:28:54;2.67;;;1.13;;
25980;SDS011;13772;52.996;9.124;2024-03-23T13:31:19;5.28;;;1.17;;
25980;SDS011;13772;52.996;9.124;2024-03-23T13:33:45;2.90;;;1.00;;
25980;SDS011;13772;52.996;9.124;2024-03-23T13:36:10;6.05;;;1.42;;
25980;SDS011;13772;52.996;9.124;2024-03-23T13:38:35;8.02;;;1.45;;
25980;SDS011;13772;52.996;9.124;2024-03-23T13:41:00;5.50;;;1.17;;
25980;SDS011;13772;52.996;9.124;2024-03-23T13:43:27;2.25;;;0.73;;
25980;SDS011;13772;52.996;9.124;2024-03-23T13:45:53;3.70;;;1.00;;
25980;SDS011;13772;52.996;9.124;2024-03-23T13:48:19;4.38;;;0.90;;
25980;SDS011;13772;52.996;9.124;2024-03-23T13:50:45;3.85;;;0.70;;
25980;SDS011;13772;52.996;9.124;2024-03-23T13:53:12;2.80;;;0.80;;
25980;SDS011;13772;52.996;9.124;2024-03-23T13:55:37;2.92;;;1.05;;
25980;SDS011;13772;52.996;9.124;2024-03-23T13:58:03;2.05;;;0.70;;
25980;SDS011;13772;52.996;9.124;2024-03-23T14:00:29;2.90;;;0.70;;
25980;SDS011;13772;52.996;9.124;2024-03-23T14:02:54;4.20;;;1.10;;
25980;SDS011;13772;52.996;9.124;2024-03-23T14:05:19;5.75;;;1.05;;
25980;SDS011;13772;52.996;9.124;2024-03-23T14:07:44;5.80;;;0.90;;
25980;SDS011;13772;52.996;9.124;2024-03-23T14:10:09;6.40;;;1.02;;
25980;SDS011;13772;52.996;9.124;2024-03-23T14:12:38;6.43;;;1.33;;
25980;SDS011;13772;52.996;9.124;2024-03-23T14:15:06;5.75;;;1.20;;
25980;SDS011;13772;52.996;9.124;2024-03-23T14:17:31;4.35;;;0.98;;
25980;SDS011;13772;52.996;9.124;2024-03-23T14:19:57;4.93;;;1.02;;
25980;SDS011;13772;52.996;9.124;2024-03-23T14:22:26;3.50;;;1.00;;
25980;SDS011;13772;52.996;9.124;2024-03-23T14:24:51;6.93;;;1.10;;
25980;SDS011;13772;52.996;9.124;2024-03-23T14:27:17;7.05;;;1.02;;
25980;SDS011;13772;52.996;9.124;2024-03-23T14:29:45;5.13;;;0.85;;
25980;SDS011;13772;52.996;9.124;2024-03-23T14:32:10;4.90;;;1.10;;
25980;SDS011;13772;52.996;9.124;2024-03-23T14:34:35;5.43;;;1.30;;
25980;SDS011;13772;52.996;9.124;2024-03-23T14:37:01;5.18;;;1.15;;
25980;SDS011;13772;52.996;9.124;2024-03-23T14:39:26;1.65;;;0.70;;
25980;SDS011;13772;52.996;9.124;2024-03-23T14:41:51;3.03;;;0.90;;
25980;SDS011;13772;52.996;9.124;2024-03-23T14:44:17;2.72;;;0.65;;
25980;SDS011;13772;52.996;9.124;2024-03-23T14:46:42;3.65;;;0.85;;
25980;SDS011;13772;52.996;9.124;2024-03-23T14:49:08;2.25;;;0.88;;
25980;SDS011;13772;52.996;9.124;2024-03-23T14:51:33;4.57;;;1.17;;
25980;SDS011;13772;52.996;9.124;2024-03-23T14:53:58;3.10;;;0.80;;
25980;SDS011;13772;52.996;9.124;2024-03-23T14:56:23;4.28;;;0.90;;
25980;SDS011;13772;52.996;9.124;2024-03-23T14:58:52;4.45;;;0.80;;
25980;SDS011;13772;52.996;9.124;2024-03-23T15:01:17;3.83;;;0.95;;
25980;SDS011;13772;52.996;9.124;2024-03-23T15:03:42;3.95;;;0.80;;
25980;SDS011;13772;52.996;9.124;2024-03-23T15:06:08;3.53;;;0.90;;
25980;SDS011;13772;52.996;9.124;2024-03-23T15:08:34;2.70;;;0.70;;
25980;SDS011;13772;52.996;9.124;2024-03-23T15:10:59;3.20;;;1.00;;
25980;SDS011;13772;52.996;9.124;2024-03-23T15:13:25;3.80;;;1.00;;
25980;SDS011;13772;52.996;9.124;2024-03-23T15:15:50;5.07;;;1.20;;
25980;SDS011;13772;52.996;9.124;2024-03-23T15:18:17;5.35;;;1.27;;
25980;SDS011;13772;52.996;9.124;2024-03-23T15:20:53;3.30;;;0.95;;
25980;SDS011;13772;52.996;9.124;2024-03-23T15:23:19;2.57;;;1.00;;
25980;SDS011;13772;52.996;9.124;2024-03-23T15:25:44;4.30;;;1.20;;
25980;SDS011;13772;52.996;9.124;2024-03-23T15:28:09;7.82;;;1.52;;
25980;SDS011;13772;52.996;9.124;2024-03-23T15:30:34;4.35;;;1.10;;
25980;SDS011;13772;52.996;9.124;2024-03-23T15:33:00;5.60;;;1.40;;
25980;SDS011;13772;52.996;9.124;2024-03-23T15:35:25;5.32;;;1.40;;
25980;SDS011;13772;52.996;9.124;2024-03-23T15:37:50;12.88;;;2.03;;
25980;SDS011;13772;52.996;9.124;2024-03-23T15:40:15;4.60;;;1.10;;
25980;SDS011;13772;52.996;9.124;2024-03-23T15:42:41;4.65;;;1.35;;
25980;SDS011;13772;52.996;9.124;2024-03-23T15:45:06;3.83;;;1.20;;
25980;SDS011;13772;52.996;9.124;2024-03-23T15:47:32;4.22;;;1.55;;
25980;SDS011;13772;52.996;9.124;2024-03-23T15:49:57;11.23;;;1.80;;
25980;SDS011;13772;52.996;9.124;2024-03-23T15:52:23;4.05;;;1.80;;
25980;SDS011;13772;52.996;9.124;2024-03-23T15:54:48;7.05;;;1.60;;
25980;SDS011;13772;52.996;9.124;2024-03-23T15:57:13;6.72;;;1.45;;
25980;SDS011;13772;52.996;9.124;2024-03-23T15:59:40;4.88;;;1.38;;
25980;SDS011;13772;52.996;9.124;2024-03-23T16:02:05;7.47;;;1.48;;
25980;SDS011;13772;52.996;9.124;2024-03-23T16:04:30;8.45;;;1.60;;
25980;SDS011;13772;52.996;9.124;2024-03-23T16:06:55;7.60;;;1.80;;
25980;SDS011;13772;52.996;9.124;2024-03-23T16:09:22;4.90;;;1.48;;
25980;SDS011;13772;52.996;9.124;2024-03-23T16:11:48;4.22;;;2.00;;
25980;SDS011;13772;52.996;9.124;2024-03-23T16:14:13;3.72;;;0.90;;
25980;SDS011;13772;52.996;9.124;2024-03-23T16:16:38;3.15;;;1.10;;
25980;SDS011;13772;52.996;9.124;2024-03-23T16:19:03;2.30;;;0.80;;
25980;SDS011;13772;52.996;9.124;2024-03-23T16:21:28;2.08;;;0.57;;
25980;SDS011;13772;52.996;9.124;2024-03-23T16:23:53;3.00;;;0.63;;
25980;SDS011;13772;52.996;9.124;2024-03-23T16:26:19;3.40;;;1.58;;
25980;SDS011;13772;52.996;9.124;2024-03-23T16:28:44;4.95;;;0.90;;
25980;SDS011;13772;52.996;9.124;2024-03-23T16:31:10;2.38;;;0.70;;
25980;SDS011;13772;52.996;9.124;2024-03-23T16:33:36;3.50;;;0.88;;
25980;SDS011;13772;52.996;9.124;2024-03-23T16:36:02;4.40;;;1.25;;
25980;SDS011;13772;52.996;9.124;2024-03-23T16:38:31;1.90;;;0.80;;
25980;SDS011;13772;52.996;9.124;2024-03-23T16:41:03;3.67;;;0.87;;
25980;SDS011;13772;52.996;9.124;2024-03-23T16:43:31;3.92;;;0.90;;
25980;SDS011;13772;52.996;9.124;2024-03-23T16:45:57;4.80;;;1.08;;
25980;SDS011;13772;52.996;9.124;2024-03-23T16:48:23;5.25;;;1.60;;
25980;SDS011;13772;52.996;9.124;2024-03-23T16:50:48;3.80;;;1.20;;
25980;SDS011;13772;52.996;9.124;2024-03-23T16:53:14;3.95;;;1.40;;
25980;SDS011;13772;52.996;9.124;2024-03-23T16:55:39;4.80;;;1.70;;
25980;SDS011;13772;52.996;9.124;2024-03-23T16:58:04;4.03;;;1.55;;
25980;SDS011;13772;52.996;9.124;2024-03-23T17:00:30;2.55;;;1.00;;
25980;SDS011;13772;52.996;9.124;2024-03-23T17:02:55;5.55;;;1.25;;
25980;SDS011;13772;52.996;9.124;2024-03-23T17:05:20;3.17;;;0.82;;
25980;SDS011;13772;52.996;9.124;2024-03-23T17:07:47;4.25;;;1.45;;
25980;SDS011;13772;52.996;9.124;2024-03-23T17:10:13;3.90;;;1.63;;
25980;SDS011;13772;52.996;9.124;2024-03-23T17:12:39;8.95;;;1.40;;
25980;SDS011;13772;52.996;9.124;2024-03-23T17:15:04;4.95;;;1.38;;
25980;SDS011;13772;52.996;9.124;2024-03-23T17:17:33;4.63;;;1.30;;
25980;SDS011;13772;52.996;9.124;2024-03-23T17:19:59;6.50;;;1.30;;
25980;SDS011;13772;52.996;9.124;2024-03-23T17:22:25;6.53;;;0.75;;
25980;SDS011;13772;52.996;9.124;2024-03-23T17:24:53;5.65;;;1.60;;
25980;SDS011;13772;52.996;9.124;2024-03-23T17:27:18;7.35;;;2.67;;
25980;SDS011;13772;52.996;9.124;2024-03-23T17:29:43;14.82;;;4.97;;
25980;SDS011;13772;52.996;9.124;2024-03-23T17:32:09;11.32;;;4.97;;
25980;SDS011;13772;52.996;9.124;2024-03-23T17:34:34;10.93;;;3.97;;
25980;SDS011;13772;52.996;9.124;2024-03-23T17:36:59;10.32;;;2.40;;
25980;SDS011;13772;52.996;9.124;2024-03-23T17:39:25;5.85;;;1.75;;
25980;SDS011;13772;52.996;9.124;2024-03-23T17:41:50;5.30;;;1.60;;
25980;SDS011;13772;52.996;9.124;2024-03-23T17:44:15;6.60;;;1.70;;
25980;SDS011;13772;52.996;9.124;2024-03-23T17:46:40;9.70;;;2.10;;
25980;SDS011;13772;52.996;9.124;2024-03-23T17:49:06;7.55;;;1.67;;
25980;SDS011;13772;52.996;9.124;2024-03-23T17:51:31;5.13;;;1.48;;
25980;SDS011;13772;52.996;9.124;2024-03-23T17:53:56;5.05;;;1.42;;
25980;SDS011;13772;52.996;9.124;2024-03-23T17:56:21;5.57;;;1.33;;
25980;SDS011;13772;52.996;9.124;2024-03-23T17:58:47;10.23;;;2.78;;
25980;SDS011;13772;52.996;9.124;2024-03-23T18:01:12;11.23;;;3.53;;
25980;SDS011;13772;52.996;9.124;2024-03-23T18:03:38;7.03;;;2.10;;
25980;SDS011;13772;52.996;9.124;2024-03-23T18:06:03;7.70;;;3.03;;
25980;SDS011;13772;52.996;9.124;2024-03-23T18:08:28;7.40;;;2.40;;
25980;SDS011;13772;52.996;9.124;2024-03-23T18:10:54;9.40;;;2.55;;
25980;SDS011;13772;52.996;9.124;2024-03-23T18:13:19;6.10;;;3.03;;
25980;SDS011;13772;52.996;9.124;2024-03-23T18:15:44;8.70;;;2.78;;
25980;SDS011;13772;52.996;9.124;2024-03-23T18:18:09;10.40;;;2.70;;
25980;SDS011;13772;52.996;9.124;2024-03-23T18:20:34;8.80;;;2.75;;
25980;SDS011;13772;52.996;9.124;2024-03-23T18:23:00;9.55;;;3.40;;
25980;SDS011;13772;52.996;9.124;2024-03-23T18:25:25;10.10;;;3.17;;
25980;SDS011;13772;52.996;9.124;2024-03-23T18:27:50;7.03;;;2.53;;
25980;SDS011;13772;52.996;9.124;2024-03-23T18:30:17;11.57;;;3.05;;
25980;SDS011;13772;52.996;9.124;2024-03-23T18:32:42;8.93;;;2.70;;
25980;SDS011;13772;52.996;9.124;2024-03-23T18:35:08;5.68;;;2.35;;
25980;SDS011;13772;52.996;9.124;2024-03-23T18:37:33;8.18;;;2.10;;
25980;SDS011;13772;52.996;9.124;2024-03-23T18:39:58;3.60;;;1.88;;
25980;SDS011;13772;52.996;9.124;2024-03-23T18:42:24;7.20;;;1.77;;
25980;SDS011;13772;52.996;9.124;2024-03-23T18:44:49;6.10;;;1.77;;
25980;SDS011;13772;52.996;9.124;2024-03-23T18:47:14;5.15;;;1.85;;
25980;SDS011;13772;52.996;9.124;2024-03-23T18:49:40;4.95;;;1.58;;
25980;SDS011;13772;52.996;9.124;2024-03-23T18:52:05;4.65;;;1.77;;
25980;SDS011;13772;52.996;9.124;2024-03-23T18:54:30;4.18;;;1.50;;
25980;SDS011;13772;52.996;9.124;2024-03-23T18:56:55;6.70;;;1.73;;
25980;SDS011;13772;52.996;9.124;2024-03-23T18:59:20;5.80;;;1.88;;
25980;SDS011;13772;52.996;9.124;2024-03-23T19:01:46;5.25;;;1.50;;
25980;SDS011;13772;52.996;9.124;2024-03-23T19:04:11;4.38;;;1.27;;
25980;SDS011;13772;52.996;9.124;2024-03-23T19:06:36;9.20;;;1.80;;
25980;SDS011;13772;52.996;9.124;2024-03-23T19:09:01;7.18;;;2.10;;
25980;SDS011;13772;52.996;9.124;2024-03-23T19:11:27;9.35;;;2.03;;
25980;SDS011;13772;52.996;9.124;2024-03-23T19:13:52;6.65;;;1.55;;
25980;SDS011;13772;52.996;9.124;2024-03-23T19:16:17;7.10;;;2.35;;
25980;SDS011;13772;52.996;9.124;2024-03-23T19:18:43;6.32;;;2.30;;
25980;SDS011;13772;52.996;9.124;2024-03-23T19:21:09;8.32;;;3.13;;
25980;SDS011;13772;52.996;9.124;2024-03-23T19:23:35;8.32;;;4.07;;
25980;SDS011;13772;52.996;9.124;2024-03-23T19:26:01;10.30;;;2.38;;
25980;SDS011;13772;52.996;9.124;2024-03-23T19:28:28;12.65;;;2.42;;
25980;SDS011;13772;52.996;9.124;2024-03-23T19:30:56;6.80;;;1.98;;
25980;SDS011;13772;52.996;9.124;2024-03-23T19:33:22;7.82;;;2.40;;
25980;SDS011;13772;52.996;9.124;2024-03-23T19:35:54;9.73;;;2.25;;
25980;SDS011;13772;52.996;9.124;2024-03-23T19:38:19;6.70;;;2.40;;
25980;SDS011;13772;52.996;9.124;2024-03-23T19:40:51;6.72;;;1.98;;
25980;SDS011;13772;52.996;9.124;2024-03-23T19:43:16;11.52;;;2.72;;
25980;SDS011;13772;52.996;9.124;2024-03-23T19:45:41;9.75;;;2.22;;
25980;SDS011;13772;52.996;9.124;2024-03-23T19:48:06;8.10;;;2.55;;
25980;SDS011;13772;52.996;9.124;2024-03-23T19:50:34;8.77;;;3.13;;
25980;SDS011;13772;52.996;9.124;2024-03-23T19:52:59;9.10;;;2.60;;
25980;SDS011;13772;52.996;9.124;2024-03-23T19:55:24;7.82;;;2.15;;
25980;SDS011;13772;52.996;9.124;2024-03-23T19:57:50;7.28;;;2.22;;
25980;SDS011;13772;52.996;9.124;2024-03-23T20:00:15;9.30;;;2.35;;
25980;SDS011;13772;52.996;9.124;2024-03-23T20:02:44;9.02;;;2.42;;
25980;SDS011;13772;52.996;9.124;2024-03-23T20:05:10;6.45;;;1.85;;
25980;SDS011;13772;52.996;9.124;2024-03-23T20:07:35;7.65;;;2.20;;
25980;SDS011;13772;52.996;9.124;2024-03-23T20:10:00;6.35;;;2.17;;
25980;SDS011;13772;52.996;9.124;2024-03-23T20:12:26;8.82;;;2.05;;
25980;SDS011;13772;52.996;9.124;2024-03-23T20:14:51;5.05;;;2.03;;
25980;SDS011;13772;52.996;9.124;2024-03-23T20:17:16;6.63;;;1.52;;
25980;SDS011;13772;52.996;9.124;2024-03-23T20:19:42;7.63;;;2.38;;
25980;SDS011;13772;52.996;9.124;2024-03-23T20:22:08;8.80;;;2.20;;
25980;SDS011;13772;52.996;9.124;2024-03-23T20:24:33;6.32;;;2.05;;
25980;SDS011;13772;52.996;9.124;2024-03-23T20:26:58;8.23;;;2.20;;
25980;SDS011;13772;52.996;9.124;2024-03-23T20:29:24;9.93;;;2.47;;
25980;SDS011;13772;52.996;9.124;2024-03-23T20:31:50;9.65;;;2.70;;
25980;SDS011;13772;52.996;9.124;2024-03-23T20:34:15;5.35;;;2.40;;
25980;SDS011;13772;52.996;9.124;2024-03-23T20:36:40;6.45;;;1.98;;
25980;SDS011;13772;52.996;9.124;2024-03-23T20:39:05;6.55;;;2.05;;
25980;SDS011;13772;52.996;9.124;2024-03-23T20:41:31;8.00;;;1.83;;
25980;SDS011;13772;52.996;9.124;2024-03-23T20:43:56;7.47;;;1.90;;
25980;SDS011;13772;52.996;9.124;2024-03-23T20:46:21;7.20;;;1.90;;
25980;SDS011;13772;52.996;9.124;2024-03-23T20:48:46;6.25;;;1.55;;
25980;SDS011;13772;52.996;9.124;2024-03-23T20:51:14;8.20;;;2.00;;
25980;SDS011;13772;52.996;9.124;2024-03-23T20:53:39;6.47;;;1.73;;
25980;SDS011;13772;52.996;9.124;2024-03-23T20:56:04;8.88;;;2.00;;
25980;SDS011;13772;52.996;9.124;2024-03-23T20:58:30;4.88;;;2.20;;
25980;SDS011;13772;52.996;9.124;2024-03-23T21:00:59;6.07;;;1.77;;
25980;SDS011;13772;52.996;9.124;2024-03-23T21:03:25;7.82;;;1.73;;
25980;SDS011;13772;52.996;9.124;2024-03-23T21:05:53;6.82;;;1.73;;
25980;SDS011;13772;52.996;9.124;2024-03-23T21:08:18;3.95;;;1.55;;
25980;SDS011;13772;52.996;9.124;2024-03-23T21:10:51;9.77;;;2.08;;
25980;SDS011;13772;52.996;9.124;2024-03-23T21:13:16;7.10;;;2.22;;
25980;SDS011;13772;52.996;9.124;2024-03-23T21:15:45;5.38;;;1.88;;
25980;SDS011;13772;52.996;9.124;2024-03-23T21:18:11;11.15;;;2.00;;
25980;SDS011;13772;52.996;9.124;2024-03-23T21:20:36;9.55;;;2.03;;
25980;SDS011;13772;52.996;9.124;2024-03-23T21:23:02;6.38;;;1.90;;
25980;SDS011;13772;52.996;9.124;2024-03-23T21:25:27;3.92;;;1.75;;
25980;SDS011;13772;52.996;9.124;2024-03-23T21:27:52;10.77;;;1.98;;
25980;SDS011;13772;52.996;9.124;2024-03-23T21:30:18;7.35;;;1.90;;
25980;SDS011;13772;52.996;9.124;2024-03-23T21:32:44;9.30;;;2.20;;
25980;SDS011;13772;52.996;9.124;2024-03-23T21:35:09;9.20;;;2.15;;
25980;SDS011;13772;52.996;9.124;2024-03-23T21:37:34;5.30;;;2.00;;
25980;SDS011;13772;52.996;9.124;2024-03-23T21:39:59;6.03;;;1.75;;
25980;SDS011;13772;52.996;9.124;2024-03-23T21:42:25;7.95;;;1.80;;
25980;SDS011;13772;52.996;9.124;2024-03-23T21:44:50;9.02;;;2.53;;
25980;SDS011;13772;52.996;9.124;2024-03-23T21:47:15;5.97;;;1.90;;
25980;SDS011;13772;52.996;9.124;2024-03-23T21:49:40;13.27;;;2.25;;
25980;SDS011;13772;52.996;9.124;2024-03-23T21:52:06;7.13;;;2.03;;
25980;SDS011;13772;52.996;9.124;2024-03-23T21:54:31;7.07;;;2.60;;
25980;SDS011;13772;52.996;9.124;2024-03-23T21:56:57;8.70;;;2.17;;
25980;SDS011;13772;52.996;9.124;2024-03-23T21:59:22;10.48;;;3.15;;
25980;SDS011;13772;52.996;9.124;2024-03-23T22:01:47;8.57;;;2.28;;
25980;SDS011;13772;52.996;9.124;2024-03-23T22:04:12;12.82;;;2.55;;
25980;SDS011;13772;52.996;9.124;2024-03-23T22:06:38;8.20;;;2.15;;
25980;SDS011;13772;52.996;9.124;2024-03-23T22:09:03;5.82;;;2.13;;
25980;SDS011;13772;52.996;9.124;2024-03-23T22:11:29;6.32;;;2.05;;
25980;SDS011;13772;52.996;9.124;2024-03-23T22:13:54;5.35;;;2.03;;
25980;SDS011;13772;52.996;9.124;2024-03-23T22:16:19;5.38;;;2.55;;
25980;SDS011;13772;52.996;9.124;2024-03-23T22:18:45;7.68;;;2.47;;
25980;SDS011;13772;52.996;9.124;2024-03-23T22:21:10;3.35;;;1.75;;
25980;SDS011;13772;52.996;9.124;2024-03-23T22:23:35;6.45;;;2.10;;
25980;SDS011;13772;52.996;9.124;2024-03-23T22:26:00;6.03;;;2.33;;
25980;SDS011;13772;52.996;9.124;2024-03-23T22:28:26;6.47;;;3.67;;
25980;SDS011;13772;52.996;9.124;2024-03-23T22:30:53;6.10;;;2.03;;
25980;SDS011;13772;52.996;9.124;2024-03-23T22:33:18;4.97;;;2.15;;
25980;SDS011;13772;52.996;9.124;2024-03-23T22:35:44;5.68;;;2.55;;
25980;SDS011;13772;52.996;9.124;2024-03-23T22:38:09;7.45;;;2.03;;
25980;SDS011;13772;52.996;9.124;2024-03-23T22:40:34;5.45;;;2.05;;
25980;SDS011;13772;52.996;9.124;2024-03-23T22:43:00;4.15;;;2.15;;
25980;SDS011;13772;52.996;9.124;2024-03-23T22:45:25;7.00;;;2.22;;
25980;SDS011;13772;52.996;9.124;2024-03-23T22:47:50;5.97;;;1.90;;
25980;SDS011;13772;52.996;9.124;2024-03-23T22:50:15;6.28;;;2.25;;
25980;SDS011;13772;52.996;9.124;2024-03-23T22:52:42;6.05;;;2.65;;
25980;SDS011;13772;52.996;9.124;2024-03-23T22:55:08;5.13;;;2.35;;
25980;SDS011;13772;52.996;9.124;2024-03-23T22:57:33;5.70;;;2.20;;
